sensor_id;sensor_type;location;lat;lon;timestamp;pressure;altitude;pressure_sealevel;temperature;humidity
55604;BME280;41468;48.838;9.330;2022-09-03T00:00:34;97912.69;;;17.49;53.03
55604;BME280;41468;48.838;9.330;2022-09-03T00:03:09;97913.19;;;17.44;53.49
55604;BME280;41468;48.838;9.330;2022-09-03T00:05:47;97914.31;;;17.47;53.53
55604;BME280;41468;48.838;9.330;2022-09-03T00:08:22;97915.44;;;17.49;53.05
55604;BME280;41468;48.838;9.330;2022-09-03T00:11:01;97909.22;;;17.45;53.28
55604;BME280;41468;48.838;9.330;2022-09-03T00:13:36;97912.81;;;17.26;53.74
55604;BME280;41468;48.838;9.330;2022-09-03T00:16:08;97914.44;;;17.23;54.08
55604;BME280;41468;48.838;9.330;2022-09-03T00:18:45;97918.66;;;17.12;54.59
55604;BME280;41468;48.838;9.330;2022-09-03T00:21:30;97903.16;;;17.34;53.76
55604;BME280;41468;48.838;9.330;2022-09-03T00:24:02;97902.75;;;17.36;53.68
55604;BME280;41468;48.838;9.330;2022-09-03T00:26:45;97906.00;;;17.30;54.13
55604;BME280;41468;48.838;9.330;2022-09-03T00:29:20;97896.75;;;17.37;53.94
55604;BME280;41468;48.838;9.330;2022-09-03T00:31:55;97884.94;;;17.37;54.00
55604;BME280;41468;48.838;9.330;2022-09-03T00:34:30;97888.31;;;17.44;53.51
55604;BME280;41468;48.838;9.330;2022-09-03T00:37:06;97891.78;;;17.48;53.65
55604;BME280;41468;48.838;9.330;2022-09-03T00:39:41;97886.84;;;17.56;53.42
55604;BME280;41468;48.838;9.330;2022-09-03T00:42:23;97898.09;;;17.49;53.10
55604;BME280;41468;48.838;9.330;2022-09-03T00:45:04;97896.78;;;17.53;53.45
55604;BME280;41468;48.838;9.330;2022-09-03T00:47:49;97900.66;;;17.56;53.23
55604;BME280;41468;48.838;9.330;2022-09-03T00:50:30;97896.66;;;17.77;53.16
55604;BME280;41468;48.838;9.330;2022-09-03T00:53:11;97895.41;;;17.62;53.21
55604;BME280;41468;48.838;9.330;2022-09-03T00:55:48;97898.88;;;17.66;53.18
55604;BME280;41468;48.838;9.330;2022-09-03T00:58:39;97887.03;;;17.49;53.25
55604;BME280;41468;48.838;9.330;2022-09-03T01:01:17;97891.19;;;17.57;53.45
55604;BME280;41468;48.838;9.330;2022-09-03T01:03:56;97898.41;;;17.51;53.27
55604;BME280;41468;48.838;9.330;2022-09-03T01:06:38;97899.22;;;17.51;53.29
55604;BME280;41468;48.838;9.330;2022-09-03T01:09:22;97895.31;;;17.49;53.32
55604;BME280;41468;48.838;9.330;2022-09-03T01:12:00;97891.59;;;17.55;53.37
55604;BME280;41468;48.838;9.330;2022-09-03T01:14:54;97893.69;;;17.51;53.67
55604;BME280;41468;48.838;9.330;2022-09-03T01:17:35;97894.19;;;17.46;53.18
55604;BME280;41468;48.838;9.330;2022-09-03T01:20:22;97889.19;;;17.58;53.98
55604;BME280;41468;48.838;9.330;2022-09-03T01:26:00;97893.84;;;17.61;53.46
55604;BME280;41468;48.838;9.330;2022-09-03T01:28:46;97887.56;;;17.60;53.88
55604;BME280;41468;48.838;9.330;2022-09-03T01:31:28;97895.41;;;17.62;54.04
55604;BME280;41468;48.838;9.330;2022-09-03T01:34:09;97887.66;;;17.73;53.85
55604;BME280;41468;48.838;9.330;2022-09-03T01:36:47;97890.06;;;17.71;53.38
55604;BME280;41468;48.838;9.330;2022-09-03T01:39:27;97895.06;;;17.60;53.54
55604;BME280;41468;48.838;9.330;2022-09-03T01:42:07;97892.47;;;17.52;53.33
55604;BME280;41468;48.838;9.330;2022-09-03T01:45:02;97901.91;;;17.55;53.64
55604;BME280;41468;48.838;9.330;2022-09-03T01:47:47;97899.38;;;17.61;53.51
55604;BME280;41468;48.838;9.330;2022-09-03T01:50:27;97900.41;;;17.50;53.87
55604;BME280;41468;48.838;9.330;2022-09-03T01:53:06;97899.72;;;17.46;53.76
55604;BME280;41468;48.838;9.330;2022-09-03T01:55:51;97904.25;;;17.57;53.59
55604;BME280;41468;48.838;9.330;2022-09-03T01:58:28;97911.66;;;17.60;53.63
55604;BME280;41468;48.838;9.330;2022-09-03T02:01:04;97917.38;;;17.69;53.35
55604;BME280;41468;48.838;9.330;2022-09-03T02:03:38;97914.44;;;17.60;53.42
55604;BME280;41468;48.838;9.330;2022-09-03T02:06:10;97914.50;;;17.56;53.51
55604;BME280;41468;48.838;9.330;2022-09-03T02:08:41;97912.53;;;17.57;53.62
55604;BME280;41468;48.838;9.330;2022-09-03T02:11:11;97910.59;;;17.53;53.45
55604;BME280;41468;48.838;9.330;2022-09-03T02:13:43;97903.00;;;17.41;54.63
55604;BME280;41468;48.838;9.330;2022-09-03T02:16:19;97908.97;;;17.56;53.88
55604;BME280;41468;48.838;9.330;2022-09-03T02:18:52;97906.56;;;17.58;53.76
55604;BME280;41468;48.838;9.330;2022-09-03T02:21:24;97908.19;;;17.55;53.56
55604;BME280;41468;48.838;9.330;2022-09-03T02:23:55;97909.75;;;17.57;53.95
55604;BME280;41468;48.838;9.330;2022-09-03T02:26:25;97920.72;;;17.60;53.62
55604;BME280;41468;48.838;9.330;2022-09-03T02:28:55;97909.66;;;17.60;53.70
55604;BME280;41468;48.838;9.330;2022-09-03T02:31:28;97912.44;;;17.60;53.75
55604;BME280;41468;48.838;9.330;2022-09-03T02:33:58;97922.22;;;17.65;54.03
55604;BME280;41468;48.838;9.330;2022-09-03T02:36:31;97926.16;;;17.64;54.38
55604;BME280;41468;48.838;9.330;2022-09-03T02:39:02;97918.13;;;17.53;54.68
55604;BME280;41468;48.838;9.330;2022-09-03T02:41:32;97927.03;;;17.61;54.18
55604;BME280;41468;48.838;9.330;2022-09-03T02:44:08;97916.22;;;17.50;54.69
55604;BME280;41468;48.838;9.330;2022-09-03T02:46:45;97913.97;;;17.45;54.87
55604;BME280;41468;48.838;9.330;2022-09-03T02:49:17;97903.19;;;17.50;54.75
55604;BME280;41468;48.838;9.330;2022-09-03T02:51:46;97910.28;;;17.51;54.42
55604;BME280;41468;48.838;9.330;2022-09-03T02:54:16;97912.78;;;17.46;54.91
55604;BME280;41468;48.838;9.330;2022-09-03T02:56:46;97913.38;;;17.53;54.81
55604;BME280;41468;48.838;9.330;2022-09-03T02:59:16;97910.06;;;17.42;54.78
55604;BME280;41468;48.838;9.330;2022-09-03T03:01:50;97905.63;;;17.48;54.63
55604;BME280;41468;48.838;9.330;2022-09-03T03:04:20;97906.28;;;17.52;54.73
55604;BME280;41468;48.838;9.330;2022-09-03T03:06:50;97898.97;;;17.46;54.77
55604;BME280;41468;48.838;9.330;2022-09-03T03:09:20;97899.72;;;17.46;54.98
55604;BME280;41468;48.838;9.330;2022-09-03T03:11:49;97907.66;;;17.44;54.87
55604;BME280;41468;48.838;9.330;2022-09-03T03:14:21;97912.44;;;17.44;54.94
55604;BME280;41468;48.838;9.330;2022-09-03T03:16:53;97916.13;;;17.37;55.41
55604;BME280;41468;48.838;9.330;2022-09-03T03:19:23;97925.44;;;17.27;55.77
55604;BME280;41468;48.838;9.330;2022-09-03T03:21:53;97922.50;;;17.34;55.97
55604;BME280;41468;48.838;9.330;2022-09-03T03:24:23;97918.50;;;17.19;55.99
55604;BME280;41468;48.838;9.330;2022-09-03T03:26:54;97915.41;;;17.17;56.61
55604;BME280;41468;48.838;9.330;2022-09-03T03:29:24;97922.06;;;17.19;56.70
55604;BME280;41468;48.838;9.330;2022-09-03T03:31:57;97924.22;;;17.28;56.04
55604;BME280;41468;48.838;9.330;2022-09-03T03:34:26;97921.47;;;17.28;56.12
55604;BME280;41468;48.838;9.330;2022-09-03T03:36:56;97921.31;;;17.35;56.36
55604;BME280;41468;48.838;9.330;2022-09-03T03:39:25;97924.13;;;17.31;56.18
55604;BME280;41468;48.838;9.330;2022-09-03T03:41:55;97922.06;;;17.19;56.53
55604;BME280;41468;48.838;9.330;2022-09-03T03:44:25;97927.34;;;17.30;56.45
55604;BME280;41468;48.838;9.330;2022-09-03T03:46:57;97923.19;;;17.22;56.42
55604;BME280;41468;48.838;9.330;2022-09-03T03:49:27;97923.72;;;17.33;56.13
55604;BME280;41468;48.838;9.330;2022-09-03T03:51:57;97921.97;;;17.23;56.36
55604;BME280;41468;48.838;9.330;2022-09-03T03:54:28;97926.78;;;17.19;56.67
55604;BME280;41468;48.838;9.330;2022-09-03T03:56:58;97930.31;;;17.03;57.35
55604;BME280;41468;48.838;9.330;2022-09-03T03:59:27;97932.88;;;17.10;57.22
55604;BME280;41468;48.838;9.330;2022-09-03T04:02:00;97930.72;;;17.01;57.29
55604;BME280;41468;48.838;9.330;2022-09-03T04:04:29;97936.94;;;17.05;57.39
55604;BME280;41468;48.838;9.330;2022-09-03T04:06:59;97937.94;;;16.95;57.89
55604;BME280;41468;48.838;9.330;2022-09-03T04:09:29;97932.97;;;17.06;57.76
55604;BME280;41468;48.838;9.330;2022-09-03T04:11:58;97931.44;;;17.05;57.36
55604;BME280;41468;48.838;9.330;2022-09-03T04:14:29;97926.13;;;16.95;58.00
55604;BME280;41468;48.838;9.330;2022-09-03T04:17:01;97924.31;;;17.04;57.69
55604;BME280;41468;48.838;9.330;2022-09-03T04:19:31;97919.53;;;17.08;57.43
55604;BME280;41468;48.838;9.330;2022-09-03T04:22:00;97924.47;;;16.97;57.86
55604;BME280;41468;48.838;9.330;2022-09-03T04:24:30;97924.63;;;16.90;57.78
55604;BME280;41468;48.838;9.330;2022-09-03T04:27:01;97922.78;;;17.03;57.60
55604;BME280;41468;48.838;9.330;2022-09-03T04:29:31;97933.56;;;16.98;57.88
55604;BME280;41468;48.838;9.330;2022-09-03T04:32:03;97923.28;;;16.98;58.07
55604;BME280;41468;48.838;9.330;2022-09-03T04:34:45;97924.69;;;17.06;57.81
55604;BME280;41468;48.838;9.330;2022-09-03T04:37:15;97919.31;;;16.99;58.01
55604;BME280;41468;48.838;9.330;2022-09-03T04:39:45;97920.16;;;17.16;57.80
55604;BME280;41468;48.838;9.330;2022-09-03T04:42:15;97929.94;;;17.01;58.30
55604;BME280;41468;48.838;9.330;2022-09-03T04:44:45;97932.44;;;16.95;58.51
55604;BME280;41468;48.838;9.330;2022-09-03T04:47:17;97939.63;;;16.89;58.64
55604;BME280;41468;48.838;9.330;2022-09-03T04:49:47;97934.97;;;17.06;58.49
55604;BME280;41468;48.838;9.330;2022-09-03T04:52:16;97938.81;;;16.92;58.60
55604;BME280;41468;48.838;9.330;2022-09-03T04:54:46;97940.50;;;16.86;59.13
55604;BME280;41468;48.838;9.330;2022-09-03T04:57:16;97931.16;;;16.80;59.35
55604;BME280;41468;48.838;9.330;2022-09-03T04:59:45;97931.00;;;16.87;59.07
55604;BME280;41468;48.838;9.330;2022-09-03T05:02:18;97938.50;;;16.86;59.04
55604;BME280;41468;48.838;9.330;2022-09-03T05:04:47;97926.03;;;16.98;58.97
55604;BME280;41468;48.838;9.330;2022-09-03T05:07:17;97929.38;;;16.90;58.92
55604;BME280;41468;48.838;9.330;2022-09-03T05:09:47;97940.28;;;16.97;59.16
55604;BME280;41468;48.838;9.330;2022-09-03T05:12:17;97937.00;;;17.02;58.78
55604;BME280;41468;48.838;9.330;2022-09-03T05:14:48;97926.19;;;16.91;59.12
55604;BME280;41468;48.838;9.330;2022-09-03T05:17:20;97929.84;;;17.04;58.87
55604;BME280;41468;48.838;9.330;2022-09-03T05:19:50;97932.25;;;17.02;59.04
55604;BME280;41468;48.838;9.330;2022-09-03T05:22:19;97938.91;;;17.05;59.12
55604;BME280;41468;48.838;9.330;2022-09-03T05:24:49;97934.06;;;16.93;59.39
55604;BME280;41468;48.838;9.330;2022-09-03T05:27:19;97933.34;;;16.88;59.33
55604;BME280;41468;48.838;9.330;2022-09-03T05:29:48;97934.34;;;16.98;59.12
55604;BME280;41468;48.838;9.330;2022-09-03T05:32:21;97927.81;;;16.88;59.71
55604;BME280;41468;48.838;9.330;2022-09-03T05:34:51;97930.84;;;16.94;59.57
55604;BME280;41468;48.838;9.330;2022-09-03T05:37:20;97926.13;;;16.95;59.62
55604;BME280;41468;48.838;9.330;2022-09-03T05:39:51;97928.81;;;16.98;59.75
55604;BME280;41468;48.838;9.330;2022-09-03T05:42:21;97933.97;;;16.96;59.62
55604;BME280;41468;48.838;9.330;2022-09-03T05:44:51;97938.28;;;16.97;59.57
55604;BME280;41468;48.838;9.330;2022-09-03T05:47:23;97937.59;;;16.93;59.76
55604;BME280;41468;48.838;9.330;2022-09-03T05:49:53;97941.00;;;17.01;59.74
55604;BME280;41468;48.838;9.330;2022-09-03T05:52:23;97945.34;;;17.18;59.44
55604;BME280;41468;48.838;9.330;2022-09-03T05:54:52;97949.59;;;17.23;59.07
55604;BME280;41468;48.838;9.330;2022-09-03T05:57:22;97950.09;;;17.18;59.38
55604;BME280;41468;48.838;9.330;2022-09-03T05:59:51;97946.22;;;17.15;59.53
55604;BME280;41468;48.838;9.330;2022-09-03T06:02:24;97953.91;;;17.24;59.51
55604;BME280;41468;48.838;9.330;2022-09-03T06:04:54;97951.31;;;17.17;59.44
55604;BME280;41468;48.838;9.330;2022-09-03T06:07:24;97950.66;;;17.29;59.18
55604;BME280;41468;48.838;9.330;2022-09-03T06:09:53;97951.50;;;17.26;59.77
55604;BME280;41468;48.838;9.330;2022-09-03T06:12:23;97947.47;;;17.30;59.48
55604;BME280;41468;48.838;9.330;2022-09-03T06:14:53;97952.03;;;17.37;59.39
55604;BME280;41468;48.838;9.330;2022-09-03T06:17:25;97953.84;;;17.27;59.53
55604;BME280;41468;48.838;9.330;2022-09-03T06:19:55;97962.06;;;17.31;59.69
55604;BME280;41468;48.838;9.330;2022-09-03T06:22:24;97956.63;;;17.27;59.87
55604;BME280;41468;48.838;9.330;2022-09-03T06:24:55;97961.00;;;17.25;60.12
55604;BME280;41468;48.838;9.330;2022-09-03T06:27:27;97974.59;;;17.16;60.48
55604;BME280;41468;48.838;9.330;2022-09-03T06:29:57;97965.28;;;17.09;60.81
55604;BME280;41468;48.838;9.330;2022-09-03T06:32:29;97965.47;;;17.19;60.55
55604;BME280;41468;48.838;9.330;2022-09-03T06:34:59;97960.47;;;17.14;60.73
55604;BME280;41468;48.838;9.330;2022-09-03T06:37:28;97962.69;;;17.19;60.83
55604;BME280;41468;48.838;9.330;2022-09-03T06:39:58;97957.97;;;17.19;60.74
55604;BME280;41468;48.838;9.330;2022-09-03T06:42:28;97961.38;;;17.27;60.50
55604;BME280;41468;48.838;9.330;2022-09-03T06:44:57;97960.78;;;17.16;61.12
55604;BME280;41468;48.838;9.330;2022-09-03T06:47:31;97956.16;;;17.29;60.51
55604;BME280;41468;48.838;9.330;2022-09-03T06:50:00;97962.56;;;17.26;61.21
55604;BME280;41468;48.838;9.330;2022-09-03T06:52:30;97963.78;;;17.25;61.34
55604;BME280;41468;48.838;9.330;2022-09-03T06:55:00;97967.50;;;17.35;61.22
55604;BME280;41468;48.838;9.330;2022-09-03T06:57:29;97960.28;;;17.41;61.03
55604;BME280;41468;48.838;9.330;2022-09-03T06:59:59;97967.78;;;17.40;61.30
55604;BME280;41468;48.838;9.330;2022-09-03T07:02:32;97962.59;;;17.42;61.14
55604;BME280;41468;48.838;9.330;2022-09-03T07:05:02;97964.00;;;17.50;61.08
55604;BME280;41468;48.838;9.330;2022-09-03T07:07:34;97965.06;;;17.57;60.84
55604;BME280;41468;48.838;9.330;2022-09-03T07:10:05;97967.47;;;17.54;61.08
55604;BME280;41468;48.838;9.330;2022-09-03T07:12:35;97968.25;;;17.55;61.14
55604;BME280;41468;48.838;9.330;2022-09-03T07:15:06;97965.38;;;17.59;60.96
55604;BME280;41468;48.838;9.330;2022-09-03T07:17:40;97960.66;;;17.59;61.28
55604;BME280;41468;48.838;9.330;2022-09-03T07:20:10;97969.00;;;17.75;60.61
55604;BME280;41468;48.838;9.330;2022-09-03T07:22:39;97965.63;;;17.84;60.46
55604;BME280;41468;48.838;9.330;2022-09-03T07:25:09;97965.78;;;17.93;60.17
55604;BME280;41468;48.838;9.330;2022-09-03T07:27:39;97975.06;;;18.03;60.21
55604;BME280;41468;48.838;9.330;2022-09-03T07:30:10;97984.13;;;18.04;60.51
55604;BME280;41468;48.838;9.330;2022-09-03T07:32:42;97981.47;;;18.16;60.38
55604;BME280;41468;48.838;9.330;2022-09-03T07:35:12;97987.91;;;18.26;59.98
55604;BME280;41468;48.838;9.330;2022-09-03T07:37:42;97982.13;;;18.37;59.64
55604;BME280;41468;48.838;9.330;2022-09-03T07:40:12;97975.34;;;18.54;59.32
55604;BME280;41468;48.838;9.330;2022-09-03T07:42:45;97969.28;;;18.76;58.98
55604;BME280;41468;48.838;9.330;2022-09-03T07:45:20;97973.50;;;18.80;59.03
55604;BME280;41468;48.838;9.330;2022-09-03T07:47:53;97977.19;;;18.90;59.02
55604;BME280;41468;48.838;9.330;2022-09-03T07:50:22;97978.41;;;18.89;58.65
55604;BME280;41468;48.838;9.330;2022-09-03T07:52:55;97974.88;;;18.89;58.91
55604;BME280;41468;48.838;9.330;2022-09-03T07:55:25;97980.00;;;19.03;58.47
55604;BME280;41468;48.838;9.330;2022-09-03T07:57:55;97981.22;;;19.15;58.66
55604;BME280;41468;48.838;9.330;2022-09-03T08:00:25;97982.50;;;19.26;58.75
55604;BME280;41468;48.838;9.330;2022-09-03T08:02:57;97990.47;;;19.24;58.37
55604;BME280;41468;48.838;9.330;2022-09-03T08:05:31;97990.69;;;19.30;58.49
55604;BME280;41468;48.838;9.330;2022-09-03T08:08:02;97992.28;;;19.44;58.16
55604;BME280;41468;48.838;9.330;2022-09-03T08:10:33;97987.34;;;19.64;57.74
55604;BME280;41468;48.838;9.330;2022-09-03T08:13:03;97991.31;;;20.02;57.02
55604;BME280;41468;48.838;9.330;2022-09-03T08:15:33;98000.28;;;20.31;56.32
55604;BME280;41468;48.838;9.330;2022-09-03T08:18:08;97999.91;;;20.55;54.77
55604;BME280;41468;48.838;9.330;2022-09-03T08:20:38;97994.31;;;20.68;55.00
55604;BME280;41468;48.838;9.330;2022-09-03T08:23:08;97999.47;;;20.56;55.06
55604;BME280;41468;48.838;9.330;2022-09-03T08:25:38;97996.13;;;20.49;56.42
55604;BME280;41468;48.838;9.330;2022-09-03T08:28:08;97997.09;;;20.68;56.11
55604;BME280;41468;48.838;9.330;2022-09-03T08:30:37;98003.44;;;20.68;57.21
55604;BME280;41468;48.838;9.330;2022-09-03T08:33:10;98000.59;;;20.81;56.09
55604;BME280;41468;48.838;9.330;2022-09-03T08:35:39;98001.69;;;21.05;55.94
55604;BME280;41468;48.838;9.330;2022-09-03T08:38:10;97997.97;;;21.43;55.07
55604;BME280;41468;48.838;9.330;2022-09-03T08:40:40;98001.81;;;21.46;54.61
55604;BME280;41468;48.838;9.330;2022-09-03T08:43:14;97995.81;;;21.47;54.60
55604;BME280;41468;48.838;9.330;2022-09-03T08:45:46;97992.53;;;21.71;54.14
55604;BME280;41468;48.838;9.330;2022-09-03T08:48:20;98002.56;;;21.37;54.57
55604;BME280;41468;48.838;9.330;2022-09-03T08:50:55;97999.38;;;21.48;54.92
55604;BME280;41468;48.838;9.330;2022-09-03T08:53:30;98012.66;;;21.44;56.08
55604;BME280;41468;48.838;9.330;2022-09-03T08:56:07;98004.72;;;21.33;55.87
55604;BME280;41468;48.838;9.330;2022-09-03T08:58:38;98007.91;;;21.54;56.78
55604;BME280;41468;48.838;9.330;2022-09-03T09:01:19;98011.16;;;21.52;57.77
55604;BME280;41468;48.838;9.330;2022-09-03T09:04:03;98020.81;;;21.69;56.41
55604;BME280;41468;48.838;9.330;2022-09-03T09:06:41;98015.13;;;21.73;55.22
55604;BME280;41468;48.838;9.330;2022-09-03T09:09:22;98008.50;;;21.80;56.01
55604;BME280;41468;48.838;9.330;2022-09-03T09:12:07;98018.28;;;21.93;55.32
55604;BME280;41468;48.838;9.330;2022-09-03T09:14:45;98018.75;;;21.92;56.03
55604;BME280;41468;48.838;9.330;2022-09-03T09:17:30;98024.63;;;21.94;56.34
55604;BME280;41468;48.838;9.330;2022-09-03T09:20:14;98014.56;;;21.87;57.04
55604;BME280;41468;48.838;9.330;2022-09-03T09:22:51;98024.56;;;22.07;56.02
55604;BME280;41468;48.838;9.330;2022-09-03T09:25:23;98019.97;;;22.22;54.34
55604;BME280;41468;48.838;9.330;2022-09-03T09:27:59;98015.34;;;22.28;55.25
55604;BME280;41468;48.838;9.330;2022-09-03T09:30:30;98017.38;;;22.46;55.96
55604;BME280;41468;48.838;9.330;2022-09-03T09:33:01;98017.88;;;22.63;54.73
55604;BME280;41468;48.838;9.330;2022-09-03T09:35:34;98012.28;;;22.63;55.89
55604;BME280;41468;48.838;9.330;2022-09-03T09:38:07;98021.81;;;22.25;55.88
55604;BME280;41468;48.838;9.330;2022-09-03T09:40:38;98021.66;;;21.88;56.96
55604;BME280;41468;48.838;9.330;2022-09-03T09:43:13;98021.38;;;21.86;56.88
55604;BME280;41468;48.838;9.330;2022-09-03T09:45:44;98020.97;;;21.66;58.48
55604;BME280;41468;48.838;9.330;2022-09-03T09:48:21;98016.56;;;21.56;58.22
55604;BME280;41468;48.838;9.330;2022-09-03T09:51:05;98018.94;;;21.66;58.49
55604;BME280;41468;48.838;9.330;2022-09-03T09:53:35;98009.59;;;22.32;56.39
55604;BME280;41468;48.838;9.330;2022-09-03T09:56:06;98004.88;;;22.51;55.72
55604;BME280;41468;48.838;9.330;2022-09-03T09:58:36;98009.06;;;23.01;54.18
55604;BME280;41468;48.838;9.330;2022-09-03T10:01:11;98007.03;;;23.30;53.56
55604;BME280;41468;48.838;9.330;2022-09-03T10:03:48;98015.69;;;23.50;52.75
55604;BME280;41468;48.838;9.330;2022-09-03T10:06:25;98010.09;;;23.50;52.84
55604;BME280;41468;48.838;9.330;2022-09-03T10:09:25;98006.72;;;23.28;52.99
55604;BME280;41468;48.838;9.330;2022-09-03T10:12:04;98005.16;;;23.36;53.12
55604;BME280;41468;48.838;9.330;2022-09-03T10:14:44;98009.69;;;23.24;53.09
55604;BME280;41468;48.838;9.330;2022-09-03T10:17:21;98008.13;;;23.32;54.14
55604;BME280;41468;48.838;9.330;2022-09-03T10:20:06;98010.00;;;23.17;53.25
55604;BME280;41468;48.838;9.330;2022-09-03T10:22:55;98008.78;;;22.90;54.06
55604;BME280;41468;48.838;9.330;2022-09-03T10:25:29;98012.66;;;22.93;53.29
55604;BME280;41468;48.838;9.330;2022-09-03T10:28:06;98008.94;;;22.87;53.87
55604;BME280;41468;48.838;9.330;2022-09-03T10:30:59;98008.31;;;22.92;53.55
55604;BME280;41468;48.838;9.330;2022-09-03T10:33:34;98005.66;;;22.88;53.51
55604;BME280;41468;48.838;9.330;2022-09-03T10:36:23;98000.72;;;22.74;53.08
55604;BME280;41468;48.838;9.330;2022-09-03T10:39:03;97999.00;;;22.76;52.83
55604;BME280;41468;48.838;9.330;2022-09-03T10:41:42;98010.78;;;22.90;52.76
55604;BME280;41468;48.838;9.330;2022-09-03T10:44:30;98003.31;;;23.14;51.74
55604;BME280;41468;48.838;9.330;2022-09-03T10:47:15;97999.88;;;23.29;51.90
55604;BME280;41468;48.838;9.330;2022-09-03T10:49:53;98003.47;;;23.20;51.73
55604;BME280;41468;48.838;9.330;2022-09-03T10:52:31;98001.13;;;23.28;51.92
55604;BME280;41468;48.838;9.330;2022-09-03T10:55:15;98001.44;;;23.48;52.21
55604;BME280;41468;48.838;9.330;2022-09-03T10:57:53;98001.22;;;23.70;52.04
55604;BME280;41468;48.838;9.330;2022-09-03T11:00:30;98001.72;;;24.02;50.42
55604;BME280;41468;48.838;9.330;2022-09-03T11:03:15;98002.88;;;23.86;50.29
55604;BME280;41468;48.838;9.330;2022-09-03T11:05:57;98000.16;;;24.01;50.60
55604;BME280;41468;48.838;9.330;2022-09-03T11:08:31;97986.53;;;23.94;50.24
55604;BME280;41468;48.838;9.330;2022-09-03T11:11:12;97985.47;;;24.24;50.95
55604;BME280;41468;48.838;9.330;2022-09-03T11:13:48;97983.31;;;23.86;51.22
55604;BME280;41468;48.838;9.330;2022-09-03T11:16:23;97974.56;;;24.02;51.84
55604;BME280;41468;48.838;9.330;2022-09-03T11:18:56;97980.34;;;23.89;50.70
55604;BME280;41468;48.838;9.330;2022-09-03T11:21:30;97970.47;;;23.79;50.96
55604;BME280;41468;48.838;9.330;2022-09-03T11:24:06;97977.50;;;23.65;50.90
55604;BME280;41468;48.838;9.330;2022-09-03T11:26:42;97969.03;;;23.41;51.95
55604;BME280;41468;48.838;9.330;2022-09-03T11:29:19;97963.94;;;23.31;54.21
55604;BME280;41468;48.838;9.330;2022-09-03T11:31:55;97960.25;;;23.24;53.28
55604;BME280;41468;48.838;9.330;2022-09-03T11:34:30;97957.28;;;23.28;53.68
55604;BME280;41468;48.838;9.330;2022-09-03T11:37:05;97951.09;;;23.24;53.60
55604;BME280;41468;48.838;9.330;2022-09-03T11:39:38;97957.41;;;23.34;54.78
55604;BME280;41468;48.838;9.330;2022-09-03T11:42:25;97953.41;;;23.25;54.68
55604;BME280;41468;48.838;9.330;2022-09-03T11:45:00;97964.59;;;23.16;54.29
55604;BME280;41468;48.838;9.330;2022-09-03T11:47:42;97950.16;;;23.18;53.34
55604;BME280;41468;48.838;9.330;2022-09-03T11:50:19;97956.56;;;22.91;53.32
55604;BME280;41468;48.838;9.330;2022-09-03T11:52:50;97956.59;;;22.72;55.68
55604;BME280;41468;48.838;9.330;2022-09-03T11:55:26;97959.81;;;22.80;55.03
55604;BME280;41468;48.838;9.330;2022-09-03T11:58:18;97965.22;;;22.65;54.52
55604;BME280;41468;48.838;9.330;2022-09-03T12:00:51;97975.63;;;22.65;55.54
55604;BME280;41468;48.838;9.330;2022-09-03T12:03:25;97978.06;;;22.44;55.75
55604;BME280;41468;48.838;9.330;2022-09-03T12:06:10;97989.06;;;22.38;56.36
55604;BME280;41468;48.838;9.330;2022-09-03T12:09:03;97992.13;;;22.31;57.17
55604;BME280;41468;48.838;9.330;2022-09-03T12:11:43;97986.25;;;22.29;56.66
55604;BME280;41468;48.838;9.330;2022-09-03T12:14:22;97983.91;;;22.19;56.28
55604;BME280;41468;48.838;9.330;2022-09-03T12:17:14;97988.06;;;22.14;58.03
55604;BME280;41468;48.838;9.330;2022-09-03T12:19:49;97994.72;;;22.17;56.88
55604;BME280;41468;48.838;9.330;2022-09-03T12:22:22;97996.38;;;22.05;57.90
55604;BME280;41468;48.838;9.330;2022-09-03T12:24:52;97991.63;;;22.05;57.13
55604;BME280;41468;48.838;9.330;2022-09-03T12:27:23;97992.78;;;21.95;58.28
55604;BME280;41468;48.838;9.330;2022-09-03T12:29:59;97994.19;;;22.00;58.09
55604;BME280;41468;48.838;9.330;2022-09-03T12:32:31;98003.56;;;21.84;59.16
55604;BME280;41468;48.838;9.330;2022-09-03T12:35:11;98001.91;;;21.96;57.91
55604;BME280;41468;48.838;9.330;2022-09-03T12:38:01;98004.03;;;21.91;58.27
55604;BME280;41468;48.838;9.330;2022-09-03T12:40:34;98017.00;;;21.85;59.43
55604;BME280;41468;48.838;9.330;2022-09-03T12:43:26;98017.00;;;21.76;59.46
55604;BME280;41468;48.838;9.330;2022-09-03T12:46:12;98033.63;;;21.67;60.29
55604;BME280;41468;48.838;9.330;2022-09-03T12:48:51;98043.31;;;21.31;62.32
55604;BME280;41468;48.838;9.330;2022-09-03T12:51:42;98041.72;;;21.08;63.11
55604;BME280;41468;48.838;9.330;2022-09-03T12:54:19;98046.63;;;20.82;63.79
55604;BME280;41468;48.838;9.330;2022-09-03T12:56:53;98044.56;;;20.60;64.69
55604;BME280;41468;48.838;9.330;2022-09-03T12:59:27;98058.59;;;20.44;67.26
55604;BME280;41468;48.838;9.330;2022-09-03T13:02:09;98051.59;;;20.27;66.74
55604;BME280;41468;48.838;9.330;2022-09-03T13:04:45;98047.47;;;20.31;69.46
55604;BME280;41468;48.838;9.330;2022-09-03T13:07:23;98056.25;;;20.17;71.58
55604;BME280;41468;48.838;9.330;2022-09-03T13:10:00;98061.16;;;20.13;70.53
55604;BME280;41468;48.838;9.330;2022-09-03T13:12:33;98064.25;;;19.89;72.47
55604;BME280;41468;48.838;9.330;2022-09-03T13:15:16;98058.47;;;19.71;73.30
55604;BME280;41468;48.838;9.330;2022-09-03T13:18:08;98056.47;;;19.71;73.97
55604;BME280;41468;48.838;9.330;2022-09-03T13:20:53;98054.50;;;19.43;76.50
55604;BME280;41468;48.838;9.330;2022-09-03T13:23:38;98051.44;;;19.24;79.06
55604;BME280;41468;48.838;9.330;2022-09-03T13:26:20;98062.72;;;19.17;78.89
55604;BME280;41468;48.838;9.330;2022-09-03T13:29:15;98071.84;;;19.18;80.53
55604;BME280;41468;48.838;9.330;2022-09-03T13:31:52;98066.72;;;19.16;81.00
55604;BME280;41468;48.838;9.330;2022-09-03T13:34:35;98069.31;;;19.23;81.81
55604;BME280;41468;48.838;9.330;2022-09-03T13:37:19;98067.56;;;19.00;82.65
55604;BME280;41468;48.838;9.330;2022-09-03T13:39:54;98054.31;;;18.92;83.63
55604;BME280;41468;48.838;9.330;2022-09-03T13:42:32;98063.53;;;18.89;85.11